Time;durP1;ratioP1;P1;durP2;ratioP2;P2;SDS_P1;SDS_P2;PMS_P1;PMS_P2;Temp;Humidity;BMP_temperature;BMP_pressure;BME280_temperature;BME280_humidity;BME280_pressure;Samples;Min_cycle;Max_cycle;Signal;HPM_P1;HPM_P2
2021/12/14 00:01:15;;;;;;;7.75;6.63;;;;;;;9.24;100.00;102589.25;5251404;28;20070;-71
2021/12/14 00:03:54;;;;;;;8.10;6.60;;;;;;;9.17;100.00;102592.28;5251041;28;20067;-71
2021/12/14 00:06:26;;;;;;;7.88;6.70;;;;;;;9.13;100.00;102586.34;5252405;28;20025;-71
2021/12/14 00:08:59;;;;;;;7.88;6.70;;;;;;;9.13;100.00;102582.88;5250386;28;20423;-71
2021/12/14 00:16:58;;;;;;;7.72;6.60;;;;;;;9.11;100.00;102582.13;5251344;28;20076;-71
2021/12/14 00:19:29;;;;;;;8.05;7.05;;;;;;;9.13;100.00;102575.03;5251934;28;20021;-71
2021/12/14 00:22:21;;;;;;;7.90;6.72;;;;;;;9.13;100.00;102588.09;5252682;28;20028;-71
2021/12/14 00:24:52;;;;;;;8.85;6.95;;;;;;;9.08;100.00;102580.50;5251546;28;20036;-71
2021/12/14 00:27:25;;;;;;;6.97;6.25;;;;;;;9.03;100.00;102577.28;5248335;28;20029;-71
2021/12/14 00:30:00;;;;;;;8.07;6.85;;;;;;;9.14;100.00;102588.03;5249467;28;20382;-71
2021/12/14 00:32:35;;;;;;;8.65;6.80;;;;;;;9.06;100.00;102586.75;5250163;28;20033;-71
2021/12/14 00:35:12;;;;;;;9.77;7.53;;;;;;;9.00;100.00;102578.25;5249676;28;20047;-71
2021/12/14 00:37:48;;;;;;;7.78;6.60;;;;;;;9.08;100.00;102587.50;5251681;28;20032;-71
2021/12/14 00:40:27;;;;;;;9.38;6.45;;;;;;;9.13;100.00;102596.81;5245372;28;20029;-71
2021/12/14 00:43:00;;;;;;;8.20;6.38;;;;;;;9.05;100.00;102603.31;5242189;28;20063;-71
2021/12/14 00:45:34;;;;;;;9.27;6.85;;;;;;;9.09;100.00;102599.63;5244348;28;20024;-71
2021/12/14 00:48:07;;;;;;;10.77;6.97;;;;;;;9.04;100.00;102609.50;5246169;28;20492;-71
2021/12/14 00:50:42;;;;;;;11.63;6.95;;;;;;;9.10;100.00;102601.34;5244765;28;20502;-71
2021/12/14 00:53:14;;;;;;;8.30;7.25;;;;;;;9.06;100.00;102618.97;5244737;28;20596;-71
2021/12/14 00:55:48;;;;;;;8.25;7.45;;;;;;;9.04;100.00;102623.41;5244266;28;20029;-71
2021/12/14 00:58:21;;;;;;;9.02;6.82;;;;;;;9.02;100.00;102626.09;5246633;28;20033;-71
2021/12/14 01:01:06;;;;;;;9.27;7.13;;;;;;;9.17;100.00;102626.25;5231740;28;20059;-71
2021/12/14 01:03:41;;;;;;;8.35;7.10;;;;;;;9.09;100.00;102636.25;5242433;28;20041;-71
2021/12/14 01:06:14;;;;;;;7.85;7.03;;;;;;;9.02;100.00;102628.72;5243824;28;20029;-71
2021/12/14 01:08:48;;;;;;;7.33;6.60;;;;;;;9.11;100.00;102616.94;5243671;28;20098;-71
2021/12/14 01:11:30;;;;;;;9.30;7.63;;;;;;;9.14;100.00;102614.19;5246293;28;20288;-71
2021/12/14 01:14:10;;;;;;;10.38;7.75;;;;;;;9.09;100.00;102604.84;5246069;28;20029;-71
2021/12/14 01:16:51;;;;;;;8.52;7.43;;;;;;;9.07;100.00;102604.09;5249553;28;20147;-71
2021/12/14 01:19:28;;;;;;;8.98;7.32;;;;;;;9.07;100.00;102609.34;5249947;28;20075;-71
2021/12/14 01:22:39;;;;;;;9.52;7.35;;;;;;;9.14;100.00;102606.34;5249406;28;20133;-71
2021/12/14 01:25:25;;;;;;;8.45;6.95;;;;;;;9.18;100.00;102614.88;5249402;28;20049;-71
2021/12/14 01:28:01;;;;;;;8.75;7.00;;;;;;;9.06;100.00;102611.13;5247088;28;20021;-71
2021/12/14 01:30:41;;;;;;;9.70;7.43;;;;;;;9.06;100.00;102591.97;5247927;28;20029;-71
2021/12/14 01:33:14;;;;;;;7.97;7.03;;;;;;;9.00;100.00;102593.94;5246219;28;21159;-71
2021/12/14 01:35:47;;;;;;;7.18;6.47;;;;;;;9.04;100.00;102594.63;5248521;28;20512;-71
2021/12/14 01:38:34;;;;;;;10.85;7.20;;;;;;;9.05;100.00;102592.88;5246801;28;20051;-71
2021/12/14 01:41:10;;;;;;;9.13;6.80;;;;;;;9.05;100.00;102585.03;5248359;28;20029;-71
2021/12/14 01:43:55;;;;;;;7.78;6.78;;;;;;;8.99;100.00;102581.81;5247232;28;20067;-71
2021/12/14 01:46:32;;;;;;;7.90;6.00;;;;;;;9.01;100.00;102579.94;5246728;28;20045;-71
2021/12/14 01:49:07;;;;;;;8.75;6.45;;;;;;;8.95;100.00;102580.28;5247764;28;20256;-71
2021/12/14 01:51:41;;;;;;;7.30;6.38;;;;;;;8.98;100.00;102589.75;5250560;28;20570;-71
2021/12/14 01:54:16;;;;;;;8.38;6.15;;;;;;;9.00;100.00;102590.50;5248295;28;20622;-71
2021/12/14 01:56:48;;;;;;;6.70;5.90;;;;;;;8.93;100.00;102579.50;5248410;28;20026;-71
2021/12/14 01:59:35;;;;;;;6.40;5.57;;;;;;;9.08;100.00;102572.66;5245311;28;20094;-71
2021/12/14 02:02:24;;;;;;;6.50;4.90;;;;;;;9.01;100.00;102574.72;5246841;28;20085;-71
2021/12/14 02:04:56;;;;;;;8.05;5.32;;;;;;;8.92;100.00;102563.91;5247954;28;20076;-71
2021/12/14 02:07:28;;;;;;;7.35;5.28;;;;;;;8.91;100.00;102559.59;5247999;28;20021;-71
2021/12/14 02:10:07;;;;;;;9.00;5.18;;;;;;;8.96;100.00;102547.13;5246091;28;20029;-71
2021/12/14 02:12:41;;;;;;;7.75;5.30;;;;;;;8.89;100.00;102540.53;5245023;28;20059;-71
2021/12/14 02:15:21;;;;;;;6.15;4.72;;;;;;;8.90;100.00;102556.16;5250390;28;20016;-71
2021/12/14 02:17:54;;;;;;;9.63;5.20;;;;;;;8.85;100.00;102549.44;5252716;28;20033;-71
2021/12/14 02:20:30;;;;;;;5.55;4.85;;;;;;;8.89;100.00;102557.03;5249909;28;20106;-71
2021/12/14 02:23:02;;;;;;;6.72;4.97;;;;;;;8.82;100.00;102558.28;5246160;28;20103;-71
2021/12/14 02:25:33;;;;;;;6.05;5.07;;;;;;;8.81;100.00;102556.59;5247527;28;20641;-71
2021/12/14 02:28:08;;;;;;;6.90;4.80;;;;;;;8.86;100.00;102554.56;5246773;28;20115;-71
2021/12/14 02:30:41;;;;;;;7.35;4.72;;;;;;;8.82;100.00;102563.50;5246398;28;20033;-71
2021/12/14 02:33:14;;;;;;;;;;;;;;;9.18;100.00;102549.50;5245769;28;20029;-71
2021/12/14 02:35:47;;;;;;;6.30;5.07;;;;;;;8.79;100.00;102561.06;5254782;28;19916;-71
2021/12/14 02:38:19;;;;;;;6.53;4.97;;;;;;;8.82;100.00;102560.03;5249328;28;20071;-71
2021/12/14 02:41:01;;;;;;;7.20;5.07;;;;;;;8.87;100.00;102568.53;5253705;28;20025;-71
2021/12/14 02:43:44;;;;;;;6.15;4.70;;;;;;;8.80;100.00;102574.97;5253910;28;20028;-71
2021/12/14 02:46:29;;;;;;;6.10;4.60;;;;;;;8.97;100.00;102578.41;5250209;28;20036;-71
2021/12/14 02:49:05;;;;;;;7.15;4.97;;;;;;;8.83;100.00;102566.97;5251011;28;20329;-71
2021/12/14 02:51:44;;;;;;;6.63;5.07;;;;;;;8.88;100.00;102572.81;5250889;28;20052;-71
2021/12/14 02:54:19;;;;;;;7.45;4.97;;;;;;;8.83;100.00;102572.22;5253151;28;20037;-71
2021/12/14 02:56:56;;;;;;;7.75;5.50;;;;;;;8.85;100.00;102565.13;5252021;28;20029;-72
2021/12/14 02:59:30;;;;;;;7.88;5.38;;;;;;;8.76;100.00;102558.59;5251565;28;20029;-71
2021/12/14 03:02:05;;;;;;;7.10;5.00;;;;;;;8.76;100.00;102550.75;5252470;28;20029;-71
2021/12/14 03:04:39;;;;;;;10.13;5.07;;;;;;;8.72;100.00;102541.38;5249952;28;20080;-71
2021/12/14 03:07:15;;;;;;;8.02;5.50;;;;;;;8.74;100.00;102545.59;5252364;28;20024;-71
2021/12/14 03:12:33;;;;;;;7.03;5.13;;;;;;;8.70;100.00;102545.81;5250773;28;20049;-71
2021/12/14 03:15:16;;;;;;;8.82;5.97;;;;;;;8.80;100.00;102539.22;5251478;28;20423;-71
2021/12/14 03:17:53;;;;;;;7.78;5.85;;;;;;;8.74;100.00;102529.91;5251348;28;20021;-71
2021/12/14 03:20:29;;;;;;;6.18;5.18;;;;;;;8.73;100.00;102530.00;5252958;28;20021;-71
2021/12/14 03:23:07;;;;;;;8.77;6.18;;;;;;;8.71;100.00;102516.16;5250919;28;20128;-71
2021/12/14 03:25:45;;;;;;;6.95;5.60;;;;;;;8.66;100.00;102521.63;5251901;28;20078;-71
2021/12/14 03:28:20;;;;;;;6.85;5.95;;;;;;;8.66;100.00;102515.53;5251385;28;20387;-71
2021/12/14 03:31:21;;;;;;;8.52;5.88;;;;;;;8.87;100.00;102522.31;5252357;28;20029;-71
2021/12/14 03:34:14;;;;;;;8.27;6.40;;;;;;;8.71;100.00;102521.38;5252002;28;20120;-71
2021/12/14 03:36:53;;;;;;;7.82;6.70;;;;;;;8.76;100.00;102522.84;5246919;28;20033;-71
2021/12/14 03:39:26;;;;;;;7.88;6.60;;;;;;;8.64;100.00;102517.41;5252412;28;20040;-71
2021/12/14 03:41:59;;;;;;;8.75;7.05;;;;;;;8.62;100.00;102512.25;5249101;28;20021;-72
2021/12/14 03:44:41;;;;;;;10.48;7.85;;;;;;;8.68;100.00;102517.16;5251988;28;20025;-71
2021/12/14 03:47:17;;;;;;;15.63;8.45;;;;;;;8.60;100.00;102521.06;5251961;28;20433;-71
2021/12/14 03:49:53;;;;;;;10.55;8.45;;;;;;;8.62;100.00;102524.47;5253026;28;20390;-71
2021/12/14 03:52:29;;;;;;;10.93;7.97;;;;;;;8.60;100.00;102531.50;5253081;28;20375;-71
2021/12/14 03:55:12;;;;;;;12.30;9.55;;;;;;;8.69;100.00;102551.97;5251694;28;20028;-71
2021/12/14 03:57:43;;;;;;;10.02;8.10;;;;;;;8.62;100.00;102561.88;5252823;28;20029;-71
2021/12/14 04:00:19;;;;;;;11.38;9.52;;;;;;;8.68;100.00;102565.97;5250573;28;20037;-71
2021/12/14 04:02:54;;;;;;;10.27;9.27;;;;;;;8.63;100.00;102571.41;5250055;28;20599;-71
2021/12/14 04:05:26;;;;;;;12.02;9.38;;;;;;;8.59;100.00;102574.25;5251433;28;20439;-71
2021/12/14 04:07:57;;;;;;;15.38;10.50;;;;;;;8.59;100.00;102574.25;5249945;28;20028;-71
2021/12/14 04:10:32;;;;;;;12.25;9.60;;;;;;;8.67;100.00;102585.16;5250960;28;20399;-71
2021/12/14 04:13:13;;;;;;;11.75;10.52;;;;;;;8.65;100.00;102585.25;5249284;28;20025;-71
2021/12/14 04:15:45;;;;;;;13.02;9.88;;;;;;;8.64;100.00;102582.72;5251982;28;20027;-71
2021/12/14 04:18:17;;;;;;;13.20;10.77;;;;;;;8.66;100.00;102575.63;5249854;28;20025;-71
2021/12/14 04:20:52;;;;;;;13.35;10.27;;;;;;;8.61;100.00;102570.66;5251015;28;20415;-71
2021/12/14 04:23:26;;;;;;;12.35;10.07;;;;;;;8.62;100.00;102563.66;5249652;28;20013;-71
2021/12/14 04:26:00;;;;;;;12.65;9.55;;;;;;;8.59;100.00;102571.63;5249248;28;20024;-71
2021/12/14 04:28:34;;;;;;;;;;;;;;;9.12;100.00;102574.19;5249669;28;20105;-71
2021/12/14 04:31:05;;;;;;;12.93;10.50;;;;;;;8.66;100.00;102573.88;5251696;28;19913;-71
2021/12/14 04:33:41;;;;;;;12.15;10.15;;;;;;;8.63;100.00;102576.63;5251180;28;20036;-71
2021/12/14 04:36:17;;;;;;;13.45;10.75;;;;;;;8.68;100.00;102565.97;5250855;28;20429;-71
2021/12/14 04:38:54;;;;;;;14.25;11.00;;;;;;;8.57;100.00;102552.59;5251332;28;20082;-71
2021/12/14 04:53:31;;;;;;;15.13;12.13;;;;;;;8.83;100.00;102548.69;5254915;28;20470;-71
2021/12/14 04:56:06;;;;;;;14.30;12.13;;;;;;;8.61;100.00;102547.13;5253454;28;20456;-71
2021/12/14 04:58:43;;;;;;;13.88;11.50;;;;;;;8.62;100.00;102547.97;5254793;28;20052;-71
2021/12/14 05:01:16;;;;;;;13.40;11.70;;;;;;;8.58;100.00;102549.03;5255221;28;20033;-71
2021/12/14 05:03:54;;;;;;;15.13;12.07;;;;;;;8.60;100.00;102544.56;5252565;28;20110;-71
2021/12/14 05:06:43;;;;;;;15.40;11.65;;;;;;;8.50;100.00;102545.03;5251429;28;20024;-71
2021/12/14 05:09:28;;;;;;;14.32;11.65;;;;;;;8.53;100.00;102542.28;5252099;28;20036;-71
2021/12/14 05:12:01;;;;;;;14.43;12.00;;;;;;;8.58;100.00;102541.22;5254377;28;20060;-71
2021/12/14 05:14:34;;;;;;;13.25;11.25;;;;;;;8.55;100.00;102546.59;5255507;28;20060;-71
2021/12/14 05:17:11;;;;;;;15.90;12.55;;;;;;;8.58;100.00;102538.59;5252962;28;20057;-70
2021/12/14 05:19:47;;;;;;;14.52;11.75;;;;;;;8.60;100.00;102537.63;5253283;28;20024;-70
2021/12/14 05:22:23;;;;;;;13.75;11.32;;;;;;;8.60;100.00;102536.75;5254882;28;20025;-70
2021/12/14 05:25:03;;;;;;;15.70;13.23;;;;;;;8.65;100.00;102534.75;5254196;28;20496;-70
2021/12/14 05:27:46;;;;;;;15.05;12.48;;;;;;;8.62;100.00;102533.13;5254000;28;20391;-70
2021/12/14 05:30:34;;;;;;;16.48;12.20;;;;;;;8.65;100.00;102540.00;5252204;28;20104;-70
2021/12/14 05:33:18;;;;;;;14.40;12.25;;;;;;;8.68;100.00;102540.69;5253564;28;20025;-70
2021/12/14 05:35:52;;;;;;;14.70;12.23;;;;;;;8.56;100.00;102533.47;5254110;28;20017;-70
2021/12/14 05:38:41;;;;;;;15.93;12.85;;;;;;;8.55;100.00;102536.97;5255139;28;20517;-70
2021/12/14 05:44:05;;;;;;;17.83;13.38;;;;;;;8.50;100.00;102531.97;5252606;28;20395;-70
2021/12/14 05:46:37;;;;;;;15.77;13.45;;;;;;;8.50;100.00;102541.59;5255237;28;20029;-70
2021/12/14 05:49:11;;;;;;;16.25;13.07;;;;;;;8.60;100.00;102541.97;5254958;28;20027;-70
2021/12/14 05:51:43;;;;;;;17.42;13.95;;;;;;;8.55;100.00;102543.97;5256604;28;20402;-70
2021/12/14 05:54:24;;;;;;;17.00;13.52;;;;;;;8.67;100.00;102548.59;5253518;28;20074;-70
2021/12/14 05:56:58;;;;;;;16.80;14.15;;;;;;;8.58;100.00;102542.06;5252682;28;20029;-70
2021/12/14 05:59:33;;;;;;;17.50;14.45;;;;;;;8.57;100.00;102539.53;5254849;28;20041;-70
2021/12/14 06:02:07;;;;;;;17.83;14.25;;;;;;;8.59;100.00;102546.34;5253676;28;20035;-70
2021/12/14 06:04:46;;;;;;;18.63;14.88;;;;;;;8.66;100.00;102568.63;5253839;28;20510;-70
2021/12/14 06:07:18;;;;;;;17.85;14.15;;;;;;;8.55;100.00;102559.66;5254520;28;20037;-70
2021/12/14 06:09:51;;;;;;;17.67;14.13;;;;;;;8.53;100.00;102550.13;5255113;28;20079;-70
2021/12/14 06:12:30;;;;;;;18.23;14.90;;;;;;;8.64;100.00;102561.81;5253386;28;20017;-70
2021/12/14 06:15:05;;;;;;;19.77;15.45;;;;;;;8.53;100.00;102572.78;5252122;28;20029;-70
2021/12/14 06:17:39;;;;;;;19.80;15.55;;;;;;;8.51;100.00;102572.00;5254510;28;20020;-70
2021/12/14 06:20:13;;;;;;;20.77;15.65;;;;;;;8.46;100.00;102568.78;5253515;28;20043;-70
2021/12/14 06:22:46;;;;;;;20.60;16.00;;;;;;;8.47;100.00;102571.31;5250841;28;20028;-70
2021/12/14 06:25:22;;;;;;;20.83;16.20;;;;;;;8.54;100.00;102577.09;5254276;28;20025;-70
2021/12/14 06:27:57;;;;;;;20.35;16.17;;;;;;;8.47;100.00;102576.53;5251802;28;20051;-70
2021/12/14 06:30:32;;;;;;;21.73;16.55;;;;;;;8.49;100.00;102573.88;5252362;28;20025;-70
2021/12/14 06:33:07;;;;;;;21.95;16.90;;;;;;;8.50;100.00;102573.78;5254429;28;20036;-70
2021/12/14 06:35:45;;;;;;;20.50;15.98;;;;;;;8.49;100.00;102572.09;5253522;28;20071;-70
2021/12/14 06:38:29;;;;;;;21.13;17.23;;;;;;;8.52;100.00;102568.47;5252355;28;20029;-69
2021/12/14 06:41:17;;;;;;;20.50;16.60;;;;;;;8.55;100.00;102576.16;5251096;28;20036;-70
2021/12/14 06:43:54;;;;;;;23.05;18.00;;;;;;;8.50;100.00;102572.94;5250832;28;20195;-70
2021/12/14 06:46:35;;;;;;;20.60;16.85;;;;;;;8.57;100.00;102579.56;5253072;28;20056;-70
2021/12/14 06:49:12;;;;;;;23.92;17.88;;;;;;;8.48;100.00;102574.75;5253234;28;20175;-70
2021/12/14 06:51:49;;;;;;;23.98;18.20;;;;;;;8.50;100.00;102584.22;5253639;28;20487;-70
2021/12/14 06:54:24;;;;;;;21.40;17.05;;;;;;;8.51;100.00;102585.06;5252189;28;20032;-70
2021/12/14 06:57:01;;;;;;;24.02;17.73;;;;;;;8.50;100.00;102593.81;5252180;28;20241;-70
2021/12/14 06:59:33;;;;;;;21.35;17.23;;;;;;;8.40;100.00;102593.41;5254090;28;20055;-70
2021/12/14 07:02:08;;;;;;;21.45;17.40;;;;;;;8.42;100.00;102594.19;5235336;28;20401;-72
2021/12/14 07:04:48;;;;;;;23.92;18.65;;;;;;;8.48;100.00;102600.88;5253889;28;20439;-71
2021/12/14 07:07:24;;;;;;;24.65;18.58;;;;;;;8.46;100.00;102595.75;5252117;28;20048;-71
2021/12/14 07:09:59;;;;;;;24.98;19.08;;;;;;;8.44;100.00;102602.78;5247950;28;20040;-72
2021/12/14 07:12:35;;;;;;;22.10;17.20;;;;;;;8.49;100.00;102607.81;5247777;28;20056;-71
2021/12/14 07:15:15;;;;;;;23.83;18.50;;;;;;;8.48;100.00;102601.72;5253967;28;20037;-71
2021/12/14 07:18:05;;;;;;;27.42;20.10;;;;;;;8.52;100.00;102605.03;5250080;28;20032;-71
2021/12/14 07:20:51;;;;;;;24.85;18.48;;;;;;;8.58;100.00;102616.97;5251955;28;20509;-70
2021/12/14 07:23:33;;;;;;;27.10;19.00;;;;;;;8.56;100.00;102618.78;5251922;28;20021;-71
2021/12/14 07:26:05;;;;;;;23.65;18.33;;;;;;;8.50;100.00;102623.41;5251242;28;20033;-71
2021/12/14 07:28:39;;;;;;;25.63;19.67;;;;;;;8.53;100.00;102631.09;5252932;28;20056;-70
2021/12/14 07:31:20;;;;;;;25.33;18.92;;;;;;;8.57;100.00;102629.19;5251129;28;20297;-70
2021/12/14 07:33:58;;;;;;;24.38;18.70;;;;;;;8.48;100.00;102634.84;5250945;28;20029;-71
2021/12/14 07:36:33;;;;;;;24.90;19.10;;;;;;;8.51;100.00;102640.75;5244322;28;20044;-70
2021/12/14 07:39:11;;;;;;;27.55;19.23;;;;;;;8.54;100.00;102634.56;5242377;28;20035;-70
2021/12/14 07:41:46;;;;;;;27.27;20.33;;;;;;;8.52;100.00;102636.38;5234696;28;20039;-71
2021/12/14 07:44:19;;;;;;;27.00;20.55;;;;;;;8.53;100.00;102638.94;5251220;28;20052;-71
2021/12/14 07:46:52;;;;;;;;;;;;;;;9.05;100.00;102645.16;5249774;28;20048;-70
2021/12/14 07:49:31;;;;;;;26.05;18.48;;;;;;;8.65;100.00;102641.88;5252545;28;19924;-70
2021/12/14 07:52:08;;;;;;;28.50;20.40;;;;;;;8.63;100.00;102654.16;5248873;28;20021;-70
2021/12/14 07:54:50;;;;;;;29.45;20.38;;;;;;;8.61;100.00;102658.63;5249665;28;20119;-70
2021/12/14 07:57:28;;;;;;;27.88;19.70;;;;;;;8.57;100.00;102663.16;5248501;28;20029;-70
2021/12/14 08:00:04;;;;;;;25.45;19.10;;;;;;;8.57;100.00;102665.75;5249471;28;20087;-70
2021/12/14 08:02:41;;;;;;;26.45;20.52;;;;;;;8.64;100.00;102668.94;5250667;28;20033;-70
2021/12/14 08:05:15;;;;;;;28.52;20.55;;;;;;;8.58;100.00;102677.06;5250824;28;20049;-70
2021/12/14 08:08:30;;;;;;;25.52;19.77;;;;;;;8.68;100.00;102670.50;5250751;28;20092;-72
2021/12/14 08:11:28;;;;;;;25.65;19.80;;;;;;;8.61;100.00;102671.69;5250034;28;20070;-70
2021/12/14 08:14:33;;;;;;;28.95;21.15;;;;;;;8.60;100.00;102673.47;5231396;28;20060;-70
2021/12/14 08:17:07;;;;;;;30.27;20.70;;;;;;;8.60;100.00;102676.06;5226206;28;20871;-70
2021/12/14 08:19:42;;;;;;;27.58;20.58;;;;;;;8.56;100.00;102664.09;5250916;28;20478;-72
2021/12/14 08:22:28;;;;;;;28.65;20.33;;;;;;;8.69;100.00;102667.78;5227125;28;20032;-72
2021/12/14 08:25:08;;;;;;;32.53;21.25;;;;;;;8.63;100.00;102673.28;5240317;28;20085;-72
2021/12/14 08:27:43;;;;;;;30.13;21.23;;;;;;;8.61;100.00;102679.53;5232477;28;20376;-72
2021/12/14 08:30:16;;;;;;;30.70;21.40;;;;;;;8.58;100.00;102675.28;5253078;28;20031;-72
2021/12/14 08:32:50;;;;;;;28.38;20.55;;;;;;;8.57;100.00;102670.16;5251052;28;20139;-72
2021/12/14 08:35:28;;;;;;;29.85;22.10;;;;;;;8.64;100.00;102671.56;5234349;28;20021;-72
2021/12/14 08:38:03;;;;;;;29.85;21.50;;;;;;;8.59;100.00;102674.38;5236370;28;20115;-72
2021/12/14 08:40:39;;;;;;;29.45;21.70;;;;;;;8.66;100.00;102672.31;5234366;28;20047;-72
2021/12/14 08:43:22;;;;;;;30.45;21.40;;;;;;;8.65;100.00;102681.91;5251701;28;20021;-70
2021/12/14 08:46:09;;;;;;;29.30;21.73;;;;;;;8.80;100.00;102682.13;5234344;28;20537;-72
2021/12/14 08:48:48;;;;;;;30.35;22.10;;;;;;;8.70;100.00;102677.31;5233316;28;20021;-70
2021/12/14 08:51:50;;;;;;;30.35;22.73;;;;;;;8.93;100.00;102681.44;5249609;28;20029;-72
2021/12/14 08:54:29;;;;;;;29.15;21.40;;;;;;;8.79;100.00;102681.28;5249160;28;20463;-72
2021/12/14 08:57:10;;;;;;;30.58;22.60;;;;;;;8.75;100.00;102690.16;5251503;28;20060;-72
2021/12/14 08:59:45;;;;;;;28.88;21.60;;;;;;;8.77;100.00;102683.94;5230317;28;20025;-70
2021/12/14 09:02:18;;;;;;;32.10;21.90;;;;;;;8.75;100.00;102690.16;5250231;28;20028;-70
2021/12/14 09:05:01;;;;;;;27.77;20.77;;;;;;;8.86;100.00;102689.66;5216529;28;20447;-70
2021/12/14 09:07:32;;;;;;;27.65;21.30;;;;;;;8.82;100.00;102696.78;5213115;28;20025;-70
2021/12/14 09:10:13;;;;;;;30.65;21.83;;;;;;;8.87;100.00;102683.53;5230136;28;20542;-70
2021/12/14 09:12:47;;;;;;;29.38;22.17;;;;;;;8.86;100.00;102693.09;5213020;28;20033;-70
2021/12/14 09:15:23;;;;;;;28.67;21.75;;;;;;;8.90;100.00;102696.41;5211223;28;20022;-70
2021/12/14 09:17:55;;;;;;;33.20;22.42;;;;;;;8.93;100.00;102691.88;5230443;28;20029;-70
2021/12/14 09:20:34;;;;;;;31.52;22.85;;;;;;;9.01;100.00;102697.59;5226843;28;20032;-70
2021/12/14 09:23:13;;;;;;;31.30;22.65;;;;;;;9.07;100.00;102699.06;5228372;28;20033;-70
2021/12/14 09:25:45;;;;;;;30.40;22.60;;;;;;;9.04;100.00;102703.59;5227988;28;20029;-70
2021/12/14 09:28:17;;;;;;;28.35;22.27;;;;;;;9.11;100.00;102705.84;5229100;28;20025;-70
2021/12/14 09:30:55;;;;;;;29.42;22.52;;;;;;;9.17;100.00;102704.72;5228805;28;20028;-70
2021/12/14 09:33:28;;;;;;;30.70;23.27;;;;;;;9.16;100.00;102703.00;5228233;28;20681;-70
2021/12/14 09:36:00;;;;;;;30.98;22.45;;;;;;;9.13;100.00;102692.69;5228351;28;20034;-70
2021/12/14 09:38:34;;;;;;;33.78;23.83;;;;;;;9.17;100.00;102699.50;5232969;28;20021;-70
2021/12/14 09:41:08;;;;;;;33.83;23.80;;;;;;;9.19;100.00;102703.69;5231906;28;20040;-70
2021/12/14 09:43:40;;;;;;;32.78;23.40;;;;;;;9.19;100.00;102698.47;5231280;28;20036;-70
2021/12/14 09:46:12;;;;;;;33.17;25.08;;;;;;;9.22;100.00;102700.09;5233123;28;20034;-70
2021/12/14 09:48:47;;;;;;;33.92;23.88;;;;;;;9.22;100.00;102693.09;5232539;28;20545;-70
2021/12/14 09:51:28;;;;;;;33.63;23.63;;;;;;;9.27;100.00;102690.25;5232592;28;20029;-70
2021/12/14 09:54:03;;;;;;;32.92;23.65;;;;;;;9.20;100.00;102683.63;5232255;28;20559;-70
2021/12/14 09:56:43;;;;;;;30.73;22.77;;;;;;;9.27;100.00;102680.63;5233046;28;20104;-70
2021/12/14 09:59:15;;;;;;;33.38;25.00;;;;;;;9.19;100.00;102674.09;5230208;28;20026;-70
2021/12/14 10:01:54;;;;;;;34.22;23.77;;;;;;;9.23;100.00;102666.00;5233211;28;20033;-70
2021/12/14 10:04:33;;;;;;;32.53;23.88;;;;;;;9.33;100.00;102676.03;5246192;28;20049;-70
2021/12/14 10:07:08;;;;;;;36.50;25.23;;;;;;;9.24;100.00;102679.94;5250134;28;20037;-70
2021/12/14 10:09:46;;;;;;;32.22;24.27;;;;;;;9.37;100.00;102675.78;5253979;28;20028;-70
2021/12/14 10:15:16;;;;;;;32.35;23.55;;;;;;;9.48;100.00;102685.72;5253674;28;20067;-70
2021/12/14 10:17:50;;;;;;;33.35;23.92;;;;;;;9.49;100.00;102690.00;5252733;28;20059;-70
2021/12/14 10:20:27;;;;;;;32.50;23.63;;;;;;;9.46;100.00;102683.16;5253699;28;20036;-70
2021/12/14 10:23:01;;;;;;;31.08;23.23;;;;;;;9.59;100.00;102690.41;5251243;28;20495;-70
2021/12/14 10:25:34;;;;;;;32.80;22.83;;;;;;;9.55;100.00;102694.94;5251922;28;20020;-70
2021/12/14 10:28:07;;;;;;;30.55;22.58;;;;;;;9.58;100.00;102689.53;5251639;28;20398;-70
2021/12/14 10:30:42;;;;;;;32.75;23.15;;;;;;;9.66;100.00;102695.25;5245859;28;20084;-70
2021/12/14 10:33:14;;;;;;;33.95;25.45;;;;;;;9.58;100.00;102693.94;5246879;28;20410;-70
2021/12/14 10:35:51;;;;;;;34.72;24.27;;;;;;;9.62;100.00;102688.47;5246912;28;20390;-70
2021/12/14 10:38:30;;;;;;;33.17;24.02;;;;;;;9.63;100.00;102694.56;5247104;28;20487;-70
2021/12/14 10:44:11;;;;;;;33.33;23.60;;;;;;;9.65;100.00;102705.78;5251928;28;20028;-70
2021/12/14 10:46:46;;;;;;;33.88;24.35;;;;;;;9.68;100.00;102701.22;5251245;28;20021;-70
2021/12/14 10:49:21;;;;;;;33.50;24.48;;;;;;;9.69;100.00;102702.06;5246160;28;20056;-70
2021/12/14 10:51:58;;;;;;;31.90;22.48;;;;;;;9.81;100.00;102697.97;5242835;28;20044;-70
2021/12/14 10:54:30;;;;;;;37.20;24.55;;;;;;;9.76;100.00;102695.59;5245477;28;20087;-70
2021/12/14 10:57:06;;;;;;;37.15;25.25;;;;;;;9.85;100.00;102689.03;5245889;28;20418;-70
2021/12/14 10:59:41;;;;;;;34.47;25.45;;;;;;;9.81;100.00;102693.63;5237126;28;20022;-70
2021/12/14 11:02:13;;;;;;;34.72;25.17;;;;;;;9.78;100.00;102693.75;5224598;28;20032;-70
2021/12/14 11:04:55;;;;;;;37.17;26.70;;;;;;;9.81;100.00;102691.00;5242989;28;20121;-70
2021/12/14 11:07:43;;;;;;;36.53;24.17;;;;;;;9.96;100.00;102684.97;5246007;28;20024;-70
2021/12/14 11:10:27;;;;;;;33.35;24.63;;;;;;;9.96;100.00;102684.09;5242945;28;20036;-70
2021/12/14 11:13:12;;;;;;;34.70;24.42;;;;;;;9.92;100.00;102683.41;5246210;28;20486;-70
2021/12/14 11:15:48;;;;;;;33.15;24.48;;;;;;;9.91;100.00;102679.09;5248500;28;20164;-71
2021/12/14 11:18:23;;;;;;;38.58;26.08;;;;;;;9.92;100.00;102672.91;5242059;28;20026;-71
2021/12/14 11:21:08;;;;;;;35.55;24.42;;;;;;;10.16;100.00;102669.94;5235799;28;20542;-71
2021/12/14 11:23:43;;;;;;;34.47;24.55;;;;;;;10.10;100.00;102670.25;5247986;28;20235;-71
2021/12/14 11:26:24;;;;;;;33.15;23.75;;;;;;;10.16;100.00;102673.41;5249996;28;20234;-71
2021/12/14 11:29:04;;;;;;;35.30;25.48;;;;;;;10.21;100.00;102673.16;5247619;28;20495;-71
2021/12/14 11:31:45;;;;;;;35.13;25.60;;;;;;;10.12;100.00;102663.19;5245837;28;20526;-71
2021/12/14 11:34:30;;;;;;;35.55;25.58;;;;;;;10.21;100.00;102654.81;5231703;28;20040;-71
2021/12/14 11:37:08;;;;;;;33.17;24.73;;;;;;;10.20;100.00;102653.97;5244621;28;20531;-71
2021/12/14 11:39:50;;;;;;;33.65;25.38;;;;;;;10.26;100.00;102658.06;5241553;28;20044;-71
2021/12/14 11:42:26;;;;;;;33.22;24.75;;;;;;;10.22;100.00;102659.13;5244073;28;20025;-71
2021/12/14 11:45:07;;;;;;;40.15;27.05;;;;;;;10.20;100.00;102653.97;5246830;28;20609;-71
2021/12/14 11:47:46;;;;;;;37.40;25.23;;;;;;;10.26;100.00;102655.44;5245057;28;20104;-71
2021/12/14 11:50:22;;;;;;;38.65;25.67;;;;;;;10.28;100.00;102655.38;5248697;28;20029;-71
2021/12/14 11:53:11;;;;;;;36.88;26.02;;;;;;;10.37;100.00;102657.47;5244202;28;20080;-71
2021/12/14 11:55:57;;;;;;;34.88;25.70;;;;;;;10.40;100.00;102657.31;5247613;28;20029;-71
2021/12/14 11:58:36;;;;;;;36.00;26.45;;;;;;;10.34;100.00;102655.88;5247094;28;20051;-72
2021/12/14 12:01:34;;;;;;;39.45;27.10;;;;;;;10.31;100.00;102663.91;5251488;28;20605;-72
2021/12/14 12:04:34;;;;;;;37.78;27.30;;;;;;;10.40;100.00;102647.69;5229460;28;20088;-72
2021/12/14 12:09:50;;;;;;;40.25;26.13;;;;;;;10.41;100.00;102662.44;5247617;28;20032;-72
2021/12/14 12:12:39;;;;;;;37.35;26.33;;;;;;;10.47;100.00;102664.75;5229972;28;20225;-72
2021/12/14 12:15:21;;;;;;;39.67;28.08;;;;;;;10.47;100.00;102663.91;5247766;28;20037;-72
2021/12/14 12:17:59;;;;;;;37.17;25.55;;;;;;;10.40;100.00;102667.78;5247162;28;20410;-72
2021/12/14 12:20:33;;;;;;;41.83;28.00;;;;;;;10.38;100.00;102662.66;5250138;28;20036;-72
2021/12/14 12:23:12;;;;;;;43.38;30.20;;;;;;;10.37;100.00;102660.09;5247346;28;20029;-72
2021/12/14 12:25:48;;;;;;;38.42;26.95;;;;;;;10.40;100.00;102663.41;5251372;28;20021;-72
2021/12/14 12:28:25;;;;;;;39.28;26.27;;;;;;;10.42;100.00;102665.94;5248739;28;20044;-72
2021/12/14 12:31:11;;;;;;;42.90;27.92;;;;;;;10.33;100.00;102671.66;5248560;28;20021;-72
2021/12/14 12:33:47;;;;;;;43.45;29.55;;;;;;;10.33;100.00;102662.03;5250991;28;20031;-72